EGPE/INV METAR and TAF weather

Enter ICAO airport designator
Station Type Date Time Source
EGPE METAR 2018/12/12 16:20 UTC NOAA

EGPE 121620Z VRB02KT 9999 FEW020 BKN026 07/03 Q1016


Station Type Date Time Source
EGPE Decoded METAR 2018/12/12 16:20 UTC NOAA

Inverness / Dalcross, United Kingdom (EGPE) 57-32N 004-03W 0M
Dec 12, 2018 - 11:20 AM EST / 2018.12.12 1620 UTC
Wind: Variable at 2 MPH (2 KT):0
Visibility: greater than 7 mile(s):0
Sky conditions: mostly cloudy
Temperature: 44 F (7 C)
Dew Point: 37 F (3 C)
Relative Humidity: 75%
Pressure (altimeter): 30.00 in. Hg (1016 hPa)
ob: EGPE 121620Z VRB02KT 9999 FEW020 BKN026 07/03 Q1016
cycle: 16

Station Type Date Time Source
EGPE TAF UTC NOAA

Error!


Example: see airport list